sensor_id;sensor_type;location;lat;lon;timestamp;P1;durP1;ratioP1;P2;durP2;ratioP2
8435;SDS011;4255;48.730;9.156;2023-08-30T00:02:17;20.20;;;18.10;;
8435;SDS011;4255;48.730;9.156;2023-08-30T00:04:43;23.53;;;20.10;;
8435;SDS011;4255;48.730;9.156;2023-08-30T00:07:09;25.37;;;19.33;;
8435;SDS011;4255;48.730;9.156;2023-08-30T00:09:35;22.80;;;20.03;;
8435;SDS011;4255;48.730;9.156;2023-08-30T00:12:02;22.07;;;19.17;;
8435;SDS011;4255;48.730;9.156;2023-08-30T00:14:28;22.20;;;18.10;;
8435;SDS011;4255;48.730;9.156;2023-08-30T00:16:53;21.53;;;18.80;;
8435;SDS011;4255;48.730;9.156;2023-08-30T00:19:19;24.27;;;20.40;;
8435;SDS011;4255;48.730;9.156;2023-08-30T00:21:45;22.00;;;19.00;;
8435;SDS011;4255;48.730;9.156;2023-08-30T00:24:11;24.17;;;19.37;;
8435;SDS011;4255;48.730;9.156;2023-08-30T00:26:36;19.77;;;17.50;;
8435;SDS011;4255;48.730;9.156;2023-08-30T00:29:02;23.43;;;19.53;;
8435;SDS011;4255;48.730;9.156;2023-08-30T00:31:28;22.20;;;20.00;;
8435;SDS011;4255;48.730;9.156;2023-08-30T00:33:53;18.53;;;16.63;;
8435;SDS011;4255;48.730;9.156;2023-08-30T00:36:19;20.23;;;18.13;;
8435;SDS011;4255;48.730;9.156;2023-08-30T00:38:44;21.20;;;18.60;;
8435;SDS011;4255;48.730;9.156;2023-08-30T00:41:11;17.60;;;15.90;;
8435;SDS011;4255;48.730;9.156;2023-08-30T00:43:36;18.83;;;16.83;;
8435;SDS011;4255;48.730;9.156;2023-08-30T00:46:02;19.03;;;17.13;;
8435;SDS011;4255;48.730;9.156;2023-08-30T00:48:28;18.77;;;16.87;;
8435;SDS011;4255;48.730;9.156;2023-08-30T00:50:54;20.50;;;18.30;;
8435;SDS011;4255;48.730;9.156;2023-08-30T00:53:19;19.27;;;16.80;;
8435;SDS011;4255;48.730;9.156;2023-08-30T00:55:45;17.90;;;16.10;;
8435;SDS011;4255;48.730;9.156;2023-08-30T00:58:11;17.50;;;15.70;;
8435;SDS011;4255;48.730;9.156;2023-08-30T01:00:37;23.47;;;17.83;;
8435;SDS011;4255;48.730;9.156;2023-08-30T01:03:04;19.00;;;17.00;;
8435;SDS011;4255;48.730;9.156;2023-08-30T01:05:32;18.77;;;16.77;;
8435;SDS011;4255;48.730;9.156;2023-08-30T01:07:58;18.27;;;16.37;;
8435;SDS011;4255;48.730;9.156;2023-08-30T01:10:26;18.33;;;16.53;;
8435;SDS011;4255;48.730;9.156;2023-08-30T01:13:02;18.03;;;16.23;;
8435;SDS011;4255;48.730;9.156;2023-08-30T01:15:34;19.00;;;17.10;;
8435;SDS011;4255;48.730;9.156;2023-08-30T01:18:00;18.67;;;16.07;;
8435;SDS011;4255;48.730;9.156;2023-08-30T01:20:29;18.57;;;16.67;;
8435;SDS011;4255;48.730;9.156;2023-08-30T01:23:06;19.93;;;17.13;;
8435;SDS011;4255;48.730;9.156;2023-08-30T01:25:45;20.20;;;18.03;;
8435;SDS011;4255;48.730;9.156;2023-08-30T01:28:48;18.70;;;16.80;;
8435;SDS011;4255;48.730;9.156;2023-08-30T01:31:16;22.10;;;17.37;;
8435;SDS011;4255;48.730;9.156;2023-08-30T01:33:43;19.37;;;17.20;;
8435;SDS011;4255;48.730;9.156;2023-08-30T01:36:09;18.53;;;16.60;;
8435;SDS011;4255;48.730;9.156;2023-08-30T01:38:35;18.70;;;16.70;;
8435;SDS011;4255;48.730;9.156;2023-08-30T01:41:01;19.67;;;17.67;;
8435;SDS011;4255;48.730;9.156;2023-08-30T01:43:27;19.60;;;17.60;;
8435;SDS011;4255;48.730;9.156;2023-08-30T01:45:54;22.80;;;18.17;;
8435;SDS011;4255;48.730;9.156;2023-08-30T01:48:21;19.63;;;17.63;;
8435;SDS011;4255;48.730;9.156;2023-08-30T01:50:48;21.07;;;17.93;;
8435;SDS011;4255;48.730;9.156;2023-08-30T01:53:14;21.33;;;18.30;;
8435;SDS011;4255;48.730;9.156;2023-08-30T01:55:40;22.30;;;19.90;;
8435;SDS011;4255;48.730;9.156;2023-08-30T01:58:07;22.03;;;19.73;;
8435;SDS011;4255;48.730;9.156;2023-08-30T02:00:34;20.77;;;18.50;;
8435;SDS011;4255;48.730;9.156;2023-08-30T02:03:06;22.43;;;19.70;;
8435;SDS011;4255;48.730;9.156;2023-08-30T02:05:35;19.33;;;17.33;;
8435;SDS011;4255;48.730;9.156;2023-08-30T02:08:05;23.93;;;20.00;;
8435;SDS011;4255;48.730;9.156;2023-08-30T02:10:37;22.70;;;18.40;;
8435;SDS011;4255;48.730;9.156;2023-08-30T02:13:18;22.20;;;19.97;;
8435;SDS011;4255;48.730;9.156;2023-08-30T02:15:50;24.70;;;19.00;;
8435;SDS011;4255;48.730;9.156;2023-08-30T02:18:17;21.13;;;18.93;;
8435;SDS011;4255;48.730;9.156;2023-08-30T02:20:43;20.20;;;18.03;;
8435;SDS011;4255;48.730;9.156;2023-08-30T02:23:09;23.13;;;20.60;;
8435;SDS011;4255;48.730;9.156;2023-08-30T02:25:35;21.47;;;19.20;;
8435;SDS011;4255;48.730;9.156;2023-08-30T02:28:00;21.90;;;19.47;;
8435;SDS011;4255;48.730;9.156;2023-08-30T02:30:26;21.83;;;19.57;;
8435;SDS011;4255;48.730;9.156;2023-08-30T02:32:51;21.13;;;18.83;;
8435;SDS011;4255;48.730;9.156;2023-08-30T02:35:17;20.27;;;17.93;;
8435;SDS011;4255;48.730;9.156;2023-08-30T02:37:43;20.17;;;18.03;;
8435;SDS011;4255;48.730;9.156;2023-08-30T02:40:08;20.00;;;17.90;;
8435;SDS011;4255;48.730;9.156;2023-08-30T02:42:34;24.60;;;19.60;;
8435;SDS011;4255;48.730;9.156;2023-08-30T02:45:00;19.53;;;17.43;;
8435;SDS011;4255;48.730;9.156;2023-08-30T02:47:26;20.10;;;18.00;;
8435;SDS011;4255;48.730;9.156;2023-08-30T02:49:51;21.63;;;19.33;;
8435;SDS011;4255;48.730;9.156;2023-08-30T02:52:17;20.10;;;18.10;;
8435;SDS011;4255;48.730;9.156;2023-08-30T02:54:43;21.00;;;18.83;;
8435;SDS011;4255;48.730;9.156;2023-08-30T02:57:08;22.30;;;19.90;;
8435;SDS011;4255;48.730;9.156;2023-08-30T02:59:34;20.23;;;17.90;;
8435;SDS011;4255;48.730;9.156;2023-08-30T03:02:00;23.10;;;17.20;;
8435;SDS011;4255;48.730;9.156;2023-08-30T03:04:25;18.00;;;16.10;;
8435;SDS011;4255;48.730;9.156;2023-08-30T03:06:52;22.70;;;19.60;;
8435;SDS011;4255;48.730;9.156;2023-08-30T03:09:17;20.23;;;18.10;;
8435;SDS011;4255;48.730;9.156;2023-08-30T03:11:43;21.23;;;19.13;;
8435;SDS011;4255;48.730;9.156;2023-08-30T03:14:09;24.13;;;18.77;;
8435;SDS011;4255;48.730;9.156;2023-08-30T03:16:34;19.40;;;17.37;;
8435;SDS011;4255;48.730;9.156;2023-08-30T03:19:00;21.63;;;19.13;;
8435;SDS011;4255;48.730;9.156;2023-08-30T03:21:26;25.80;;;20.70;;
8435;SDS011;4255;48.730;9.156;2023-08-30T03:23:52;22.50;;;19.80;;
8435;SDS011;4255;48.730;9.156;2023-08-30T03:26:17;22.53;;;19.60;;
8435;SDS011;4255;48.730;9.156;2023-08-30T03:28:43;22.70;;;20.03;;
8435;SDS011;4255;48.730;9.156;2023-08-30T03:31:13;22.03;;;19.67;;
8435;SDS011;4255;48.730;9.156;2023-08-30T03:33:49;25.33;;;20.17;;
8435;SDS011;4255;48.730;9.156;2023-08-30T03:36:16;22.70;;;19.30;;
8435;SDS011;4255;48.730;9.156;2023-08-30T03:38:42;22.83;;;19.83;;
8435;SDS011;4255;48.730;9.156;2023-08-30T03:41:08;28.60;;;20.27;;
8435;SDS011;4255;48.730;9.156;2023-08-30T03:43:34;27.30;;;21.63;;
8435;SDS011;4255;48.730;9.156;2023-08-30T03:46:00;22.67;;;19.77;;
8435;SDS011;4255;48.730;9.156;2023-08-30T03:48:26;27.00;;;20.37;;
8435;SDS011;4255;48.730;9.156;2023-08-30T03:50:52;22.13;;;19.80;;
8435;SDS011;4255;48.730;9.156;2023-08-30T03:53:19;21.83;;;19.37;;
8435;SDS011;4255;48.730;9.156;2023-08-30T03:55:44;30.67;;;26.83;;
8435;SDS011;4255;48.730;9.156;2023-08-30T03:58:10;21.80;;;19.43;;
8435;SDS011;4255;48.730;9.156;2023-08-30T04:00:38;24.93;;;21.50;;
8435;SDS011;4255;48.730;9.156;2023-08-30T04:03:05;27.90;;;22.07;;
8435;SDS011;4255;48.730;9.156;2023-08-30T04:05:34;23.60;;;20.57;;
8435;SDS011;4255;48.730;9.156;2023-08-30T04:08:01;31.03;;;22.10;;
8435;SDS011;4255;48.730;9.156;2023-08-30T04:10:34;24.87;;;21.27;;
8435;SDS011;4255;48.730;9.156;2023-08-30T04:13:00;23.00;;;19.60;;
8435;SDS011;4255;48.730;9.156;2023-08-30T04:15:26;24.23;;;20.37;;
8435;SDS011;4255;48.730;9.156;2023-08-30T04:17:52;26.50;;;20.23;;
8435;SDS011;4255;48.730;9.156;2023-08-30T04:20:17;25.50;;;21.37;;
8435;SDS011;4255;48.730;9.156;2023-08-30T04:22:43;27.60;;;22.53;;
8435;SDS011;4255;48.730;9.156;2023-08-30T04:25:08;28.17;;;22.43;;
8435;SDS011;4255;48.730;9.156;2023-08-30T04:27:34;30.23;;;22.60;;
8435;SDS011;4255;48.730;9.156;2023-08-30T04:30:01;28.53;;;22.80;;
8435;SDS011;4255;48.730;9.156;2023-08-30T04:32:27;27.67;;;21.90;;
8435;SDS011;4255;48.730;9.156;2023-08-30T04:34:53;26.87;;;22.60;;
8435;SDS011;4255;48.730;9.156;2023-08-30T04:37:18;24.20;;;19.40;;
8435;SDS011;4255;48.730;9.156;2023-08-30T04:39:47;36.10;;;24.37;;
8435;SDS011;4255;48.730;9.156;2023-08-30T04:42:13;37.13;;;21.17;;
8435;SDS011;4255;48.730;9.156;2023-08-30T04:44:39;29.23;;;23.90;;
8435;SDS011;4255;48.730;9.156;2023-08-30T04:47:05;25.27;;;21.60;;
8435;SDS011;4255;48.730;9.156;2023-08-30T04:49:30;24.73;;;18.97;;
8435;SDS011;4255;48.730;9.156;2023-08-30T04:51:56;27.20;;;21.53;;
8435;SDS011;4255;48.730;9.156;2023-08-30T04:54:22;24.10;;;20.40;;
8435;SDS011;4255;48.730;9.156;2023-08-30T04:56:47;23.47;;;19.47;;
8435;SDS011;4255;48.730;9.156;2023-08-30T04:59:13;20.53;;;18.33;;
8435;SDS011;4255;48.730;9.156;2023-08-30T05:01:38;18.17;;;16.37;;
8435;SDS011;4255;48.730;9.156;2023-08-30T05:04:07;20.70;;;18.53;;
8435;SDS011;4255;48.730;9.156;2023-08-30T05:06:32;23.30;;;18.50;;
8435;SDS011;4255;48.730;9.156;2023-08-30T05:08:58;17.43;;;15.60;;
8435;SDS011;4255;48.730;9.156;2023-08-30T05:11:24;20.30;;;15.00;;
8435;SDS011;4255;48.730;9.156;2023-08-30T05:13:49;19.40;;;16.23;;
8435;SDS011;4255;48.730;9.156;2023-08-30T05:16:15;18.57;;;16.30;;
8435;SDS011;4255;48.730;9.156;2023-08-30T05:18:40;18.53;;;16.60;;
8435;SDS011;4255;48.730;9.156;2023-08-30T05:21:06;20.20;;;16.57;;
8435;SDS011;4255;48.730;9.156;2023-08-30T05:23:32;18.33;;;16.43;;
8435;SDS011;4255;48.730;9.156;2023-08-30T05:25:57;17.27;;;15.43;;
8435;SDS011;4255;48.730;9.156;2023-08-30T05:28:23;18.33;;;15.33;;
8435;SDS011;4255;48.730;9.156;2023-08-30T05:30:48;23.30;;;17.80;;
8435;SDS011;4255;48.730;9.156;2023-08-30T05:33:14;19.33;;;17.23;;
8435;SDS011;4255;48.730;9.156;2023-08-30T05:35:40;21.27;;;17.67;;
8435;SDS011;4255;48.730;9.156;2023-08-30T05:38:06;18.33;;;16.40;;
8435;SDS011;4255;48.730;9.156;2023-08-30T05:40:31;23.03;;;17.20;;
8435;SDS011;4255;48.730;9.156;2023-08-30T05:42:57;19.20;;;17.20;;
8435;SDS011;4255;48.730;9.156;2023-08-30T05:45:23;18.30;;;16.43;;
8435;SDS011;4255;48.730;9.156;2023-08-30T05:47:48;18.07;;;14.93;;
8435;SDS011;4255;48.730;9.156;2023-08-30T05:50:14;21.30;;;13.90;;
8435;SDS011;4255;48.730;9.156;2023-08-30T05:52:39;16.93;;;15.23;;
8435;SDS011;4255;48.730;9.156;2023-08-30T05:55:06;17.73;;;15.67;;
8435;SDS011;4255;48.730;9.156;2023-08-30T05:57:33;18.30;;;15.90;;
8435;SDS011;4255;48.730;9.156;2023-08-30T05:59:59;17.20;;;15.40;;
8435;SDS011;4255;48.730;9.156;2023-08-30T06:02:26;18.57;;;16.07;;
8435;SDS011;4255;48.730;9.156;2023-08-30T06:04:52;16.53;;;14.87;;
8435;SDS011;4255;48.730;9.156;2023-08-30T06:07:17;16.40;;;14.80;;
8435;SDS011;4255;48.730;9.156;2023-08-30T06:09:43;18.80;;;15.00;;
8435;SDS011;4255;48.730;9.156;2023-08-30T06:12:09;16.60;;;14.83;;
8435;SDS011;4255;48.730;9.156;2023-08-30T06:14:35;17.00;;;15.30;;
8435;SDS011;4255;48.730;9.156;2023-08-30T06:17:01;17.97;;;16.20;;
8435;SDS011;4255;48.730;9.156;2023-08-30T06:19:27;16.77;;;14.20;;
8435;SDS011;4255;48.730;9.156;2023-08-30T06:21:52;17.27;;;15.43;;
8435;SDS011;4255;48.730;9.156;2023-08-30T06:24:18;16.87;;;15.07;;
8435;SDS011;4255;48.730;9.156;2023-08-30T06:26:44;16.03;;;14.40;;
8435;SDS011;4255;48.730;9.156;2023-08-30T06:29:09;17.70;;;13.90;;
8435;SDS011;4255;48.730;9.156;2023-08-30T06:31:35;19.30;;;14.10;;
8435;SDS011;4255;48.730;9.156;2023-08-30T06:34:00;15.70;;;14.10;;
8435;SDS011;4255;48.730;9.156;2023-08-30T06:36:26;14.77;;;13.17;;
8435;SDS011;4255;48.730;9.156;2023-08-30T06:38:52;15.40;;;13.80;;
8435;SDS011;4255;48.730;9.156;2023-08-30T06:41:17;15.00;;;13.50;;
8435;SDS011;4255;48.730;9.156;2023-08-30T06:43:43;16.40;;;14.47;;
8435;SDS011;4255;48.730;9.156;2023-08-30T06:46:08;14.20;;;12.80;;
8435;SDS011;4255;48.730;9.156;2023-08-30T06:48:34;16.37;;;12.80;;
8435;SDS011;4255;48.730;9.156;2023-08-30T06:51:00;15.37;;;13.00;;
8435;SDS011;4255;48.730;9.156;2023-08-30T06:53:26;17.30;;;13.93;;
8435;SDS011;4255;48.730;9.156;2023-08-30T06:56:00;14.93;;;13.53;;
8435;SDS011;4255;48.730;9.156;2023-08-30T06:58:26;15.13;;;13.67;;
8435;SDS011;4255;48.730;9.156;2023-08-30T07:00:52;14.50;;;13.10;;
8435;SDS011;4255;48.730;9.156;2023-08-30T07:03:17;20.40;;;14.33;;
8435;SDS011;4255;48.730;9.156;2023-08-30T07:05:43;15.10;;;13.50;;
8435;SDS011;4255;48.730;9.156;2023-08-30T07:08:09;13.97;;;12.67;;
8435;SDS011;4255;48.730;9.156;2023-08-30T07:10:35;15.83;;;14.13;;
8435;SDS011;4255;48.730;9.156;2023-08-30T07:13:00;15.10;;;13.40;;
8435;SDS011;4255;48.730;9.156;2023-08-30T07:15:26;15.90;;;14.40;;
8435;SDS011;4255;48.730;9.156;2023-08-30T07:17:51;16.33;;;14.17;;
8435;SDS011;4255;48.730;9.156;2023-08-30T07:20:17;16.90;;;14.17;;
8435;SDS011;4255;48.730;9.156;2023-08-30T07:22:43;15.47;;;13.87;;
8435;SDS011;4255;48.730;9.156;2023-08-30T07:25:08;14.30;;;12.27;;
8435;SDS011;4255;48.730;9.156;2023-08-30T07:27:35;15.33;;;13.73;;
8435;SDS011;4255;48.730;9.156;2023-08-30T07:30:01;14.17;;;12.77;;
8435;SDS011;4255;48.730;9.156;2023-08-30T07:32:29;14.07;;;12.73;;
8435;SDS011;4255;48.730;9.156;2023-08-30T07:34:54;16.40;;;13.03;;
8435;SDS011;4255;48.730;9.156;2023-08-30T07:37:20;14.17;;;12.67;;
8435;SDS011;4255;48.730;9.156;2023-08-30T07:39:46;14.33;;;13.00;;
8435;SDS011;4255;48.730;9.156;2023-08-30T07:42:12;14.00;;;12.60;;
8435;SDS011;4255;48.730;9.156;2023-08-30T07:44:41;12.03;;;10.83;;
8435;SDS011;4255;48.730;9.156;2023-08-30T07:47:07;13.63;;;12.23;;
8435;SDS011;4255;48.730;9.156;2023-08-30T07:49:32;12.97;;;11.67;;
8435;SDS011;4255;48.730;9.156;2023-08-30T07:51:58;12.13;;;10.93;;
8435;SDS011;4255;48.730;9.156;2023-08-30T07:54:23;14.40;;;11.80;;
8435;SDS011;4255;48.730;9.156;2023-08-30T07:56:49;12.37;;;11.17;;
8435;SDS011;4255;48.730;9.156;2023-08-30T07:59:15;13.00;;;11.80;;
8435;SDS011;4255;48.730;9.156;2023-08-30T08:01:40;14.63;;;11.23;;
8435;SDS011;4255;48.730;9.156;2023-08-30T08:04:06;13.33;;;12.13;;
8435;SDS011;4255;48.730;9.156;2023-08-30T08:06:32;12.60;;;11.30;;
8435;SDS011;4255;48.730;9.156;2023-08-30T08:08:57;11.97;;;10.60;;
8435;SDS011;4255;48.730;9.156;2023-08-30T08:11:23;12.23;;;11.23;;
8435;SDS011;4255;48.730;9.156;2023-08-30T08:13:51;11.00;;;9.90;;
8435;SDS011;4255;48.730;9.156;2023-08-30T08:16:17;10.30;;;9.40;;
8435;SDS011;4255;48.730;9.156;2023-08-30T08:18:42;11.03;;;9.93;;
8435;SDS011;4255;48.730;9.156;2023-08-30T08:21:08;10.53;;;9.43;;
8435;SDS011;4255;48.730;9.156;2023-08-30T08:23:33;11.10;;;9.17;;
8435;SDS011;4255;48.730;9.156;2023-08-30T08:25:59;9.83;;;9.03;;
8435;SDS011;4255;48.730;9.156;2023-08-30T08:28:26;9.30;;;8.40;;
8435;SDS011;4255;48.730;9.156;2023-08-30T08:30:51;10.20;;;9.30;;
8435;SDS011;4255;48.730;9.156;2023-08-30T08:33:17;9.90;;;9.10;;
8435;SDS011;4255;48.730;9.156;2023-08-30T08:35:43;9.70;;;8.90;;
8435;SDS011;4255;48.730;9.156;2023-08-30T08:38:09;9.20;;;8.40;;
8435;SDS011;4255;48.730;9.156;2023-08-30T08:40:36;9.83;;;9.00;;
8435;SDS011;4255;48.730;9.156;2023-08-30T08:43:04;9.90;;;8.90;;
8435;SDS011;4255;48.730;9.156;2023-08-30T08:45:30;9.30;;;8.50;;
8435;SDS011;4255;48.730;9.156;2023-08-30T08:48:03;9.23;;;8.43;;
8435;SDS011;4255;48.730;9.156;2023-08-30T08:50:30;9.27;;;8.40;;
8435;SDS011;4255;48.730;9.156;2023-08-30T08:52:59;9.10;;;8.40;;
8435;SDS011;4255;48.730;9.156;2023-08-30T08:55:26;8.67;;;7.87;;
8435;SDS011;4255;48.730;9.156;2023-08-30T08:57:55;9.37;;;8.33;;
8435;SDS011;4255;48.730;9.156;2023-08-30T09:00:22;8.30;;;7.70;;
8435;SDS011;4255;48.730;9.156;2023-08-30T09:02:48;7.37;;;6.77;;
8435;SDS011;4255;48.730;9.156;2023-08-30T09:05:16;8.77;;;7.87;;
8435;SDS011;4255;48.730;9.156;2023-08-30T09:07:43;7.53;;;6.73;;
8435;SDS011;4255;48.730;9.156;2023-08-30T09:10:10;8.30;;;7.60;;
8435;SDS011;4255;48.730;9.156;2023-08-30T09:12:36;10.80;;;7.97;;
8435;SDS011;4255;48.730;9.156;2023-08-30T09:15:02;7.30;;;6.70;;
8435;SDS011;4255;48.730;9.156;2023-08-30T09:17:38;8.20;;;7.40;;
8435;SDS011;4255;48.730;9.156;2023-08-30T09:20:11;7.47;;;6.87;;
8435;SDS011;4255;48.730;9.156;2023-08-30T09:22:40;8.37;;;7.30;;
8435;SDS011;4255;48.730;9.156;2023-08-30T09:25:10;7.80;;;6.70;;
8435;SDS011;4255;48.730;9.156;2023-08-30T09:27:47;7.23;;;6.43;;
8435;SDS011;4255;48.730;9.156;2023-08-30T09:30:21;8.07;;;6.50;;
8435;SDS011;4255;48.730;9.156;2023-08-30T09:32:47;7.37;;;6.77;;
8435;SDS011;4255;48.730;9.156;2023-08-30T09:35:13;7.67;;;5.93;;
8435;SDS011;4255;48.730;9.156;2023-08-30T09:37:38;6.40;;;5.80;;
8435;SDS011;4255;48.730;9.156;2023-08-30T09:40:04;6.10;;;4.80;;
8435;SDS011;4255;48.730;9.156;2023-08-30T09:42:31;5.80;;;5.40;;
8435;SDS011;4255;48.730;9.156;2023-08-30T09:44:56;5.57;;;4.80;;
8435;SDS011;4255;48.730;9.156;2023-08-30T09:47:25;6.53;;;6.03;;
8435;SDS011;4255;48.730;9.156;2023-08-30T09:49:52;8.27;;;5.30;;
8435;SDS011;4255;48.730;9.156;2023-08-30T09:52:20;4.90;;;4.63;;
8435;SDS011;4255;48.730;9.156;2023-08-30T09:54:49;5.97;;;5.30;;
8435;SDS011;4255;48.730;9.156;2023-08-30T09:57:16;5.03;;;4.60;;
8435;SDS011;4255;48.730;9.156;2023-08-30T09:59:42;4.43;;;4.13;;
8435;SDS011;4255;48.730;9.156;2023-08-30T10:02:07;5.50;;;4.27;;
8435;SDS011;4255;48.730;9.156;2023-08-30T10:04:35;5.40;;;5.00;;
8435;SDS011;4255;48.730;9.156;2023-08-30T10:07:06;5.87;;;4.30;;
8435;SDS011;4255;48.730;9.156;2023-08-30T10:09:32;5.80;;;4.93;;
8435;SDS011;4255;48.730;9.156;2023-08-30T10:11:58;4.07;;;3.80;;
8435;SDS011;4255;48.730;9.156;2023-08-30T10:14:26;4.03;;;3.83;;
8435;SDS011;4255;48.730;9.156;2023-08-30T10:16:54;5.60;;;5.07;;
8435;SDS011;4255;48.730;9.156;2023-08-30T10:19:28;4.17;;;3.97;;
8435;SDS011;4255;48.730;9.156;2023-08-30T10:22:02;4.70;;;4.30;;
8435;SDS011;4255;48.730;9.156;2023-08-30T10:24:56;4.17;;;3.87;;
8435;SDS011;4255;48.730;9.156;2023-08-30T10:27:26;3.60;;;3.40;;
8435;SDS011;4255;48.730;9.156;2023-08-30T10:29:54;4.70;;;3.70;;
8435;SDS011;4255;48.730;9.156;2023-08-30T10:32:21;4.50;;;4.20;;
8435;SDS011;4255;48.730;9.156;2023-08-30T10:34:50;3.70;;;3.47;;
8435;SDS011;4255;48.730;9.156;2023-08-30T10:37:22;4.20;;;3.90;;
8435;SDS011;4255;48.730;9.156;2023-08-30T10:39:51;4.33;;;4.00;;
8435;SDS011;4255;48.730;9.156;2023-08-30T10:42:21;4.57;;;4.17;;
8435;SDS011;4255;48.730;9.156;2023-08-30T10:44:48;3.57;;;3.27;;
8435;SDS011;4255;48.730;9.156;2023-08-30T10:47:18;4.03;;;3.67;;
8435;SDS011;4255;48.730;9.156;2023-08-30T10:49:46;4.50;;;4.10;;
8435;SDS011;4255;48.730;9.156;2023-08-30T10:52:13;4.43;;;4.07;;
8435;SDS011;4255;48.730;9.156;2023-08-30T10:54:39;3.10;;;3.00;;
8435;SDS011;4255;48.730;9.156;2023-08-30T10:57:04;13.13;;;4.63;;
8435;SDS011;4255;48.730;9.156;2023-08-30T10:59:30;7.10;;;3.90;;
8435;SDS011;4255;48.730;9.156;2023-08-30T11:01:56;3.37;;;3.17;;
8435;SDS011;4255;48.730;9.156;2023-08-30T11:04:26;3.80;;;3.50;;
8435;SDS011;4255;48.730;9.156;2023-08-30T11:06:52;3.50;;;3.27;;
8435;SDS011;4255;48.730;9.156;2023-08-30T11:09:21;3.87;;;3.57;;
8435;SDS011;4255;48.730;9.156;2023-08-30T11:11:49;3.63;;;3.40;;
8435;SDS011;4255;48.730;9.156;2023-08-30T11:14:16;4.03;;;3.73;;
8435;SDS011;4255;48.730;9.156;2023-08-30T11:16:42;5.07;;;3.70;;
8435;SDS011;4255;48.730;9.156;2023-08-30T11:19:09;4.17;;;3.87;;
8435;SDS011;4255;48.730;9.156;2023-08-30T11:21:39;3.63;;;3.33;;
8435;SDS011;4255;48.730;9.156;2023-08-30T11:24:08;3.97;;;3.40;;
8435;SDS011;4255;48.730;9.156;2023-08-30T11:26:34;3.13;;;2.90;;
8435;SDS011;4255;48.730;9.156;2023-08-30T11:29:03;3.37;;;3.17;;
8435;SDS011;4255;48.730;9.156;2023-08-30T11:31:30;4.30;;;3.90;;
8435;SDS011;4255;48.730;9.156;2023-08-30T11:33:56;4.00;;;3.70;;
8435;SDS011;4255;48.730;9.156;2023-08-30T11:36:25;4.00;;;3.70;;
8435;SDS011;4255;48.730;9.156;2023-08-30T11:38:52;4.60;;;4.30;;
8435;SDS011;4255;48.730;9.156;2023-08-30T11:41:22;4.10;;;3.77;;
8435;SDS011;4255;48.730;9.156;2023-08-30T11:43:48;4.07;;;3.87;;
8435;SDS011;4255;48.730;9.156;2023-08-30T11:46:14;4.53;;;3.93;;
8435;SDS011;4255;48.730;9.156;2023-08-30T11:48:40;3.97;;;3.67;;
8435;SDS011;4255;48.730;9.156;2023-08-30T11:51:06;4.33;;;4.03;;
8435;SDS011;4255;48.730;9.156;2023-08-30T11:53:33;5.57;;;5.07;;
8435;SDS011;4255;48.730;9.156;2023-08-30T11:55:59;4.13;;;3.87;;
8435;SDS011;4255;48.730;9.156;2023-08-30T11:58:25;4.33;;;4.03;;
8435;SDS011;4255;48.730;9.156;2023-08-30T12:00:50;4.50;;;4.20;;
8435;SDS011;4255;48.730;9.156;2023-08-30T12:03:18;3.77;;;3.57;;
8435;SDS011;4255;48.730;9.156;2023-08-30T12:05:48;4.03;;;3.83;;
8435;SDS011;4255;48.730;9.156;2023-08-30T12:08:21;4.93;;;4.57;;
8435;SDS011;4255;48.730;9.156;2023-08-30T12:10:49;6.13;;;5.57;;
8435;SDS011;4255;48.730;9.156;2023-08-30T12:15:47;9.53;;;6.00;;
8435;SDS011;4255;48.730;9.156;2023-08-30T12:18:13;6.67;;;6.00;;
8435;SDS011;4255;48.730;9.156;2023-08-30T12:20:39;6.90;;;6.33;;
8435;SDS011;4255;48.730;9.156;2023-08-30T12:23:04;5.60;;;5.20;;
8435;SDS011;4255;48.730;9.156;2023-08-30T12:25:30;4.80;;;4.40;;
8435;SDS011;4255;48.730;9.156;2023-08-30T12:27:57;5.40;;;5.00;;
8435;SDS011;4255;48.730;9.156;2023-08-30T12:30:22;5.60;;;5.20;;
8435;SDS011;4255;48.730;9.156;2023-08-30T12:32:48;5.53;;;5.13;;
8435;SDS011;4255;48.730;9.156;2023-08-30T12:35:14;5.63;;;5.13;;
8435;SDS011;4255;48.730;9.156;2023-08-30T12:37:40;4.73;;;4.33;;
8435;SDS011;4255;48.730;9.156;2023-08-30T12:40:05;4.40;;;4.00;;
8435;SDS011;4255;48.730;9.156;2023-08-30T12:42:32;4.60;;;4.30;;
8435;SDS011;4255;48.730;9.156;2023-08-30T12:44:58;4.83;;;4.33;;
8435;SDS011;4255;48.730;9.156;2023-08-30T12:47:24;4.93;;;4.63;;
8435;SDS011;4255;48.730;9.156;2023-08-30T12:49:49;4.90;;;4.50;;
8435;SDS011;4255;48.730;9.156;2023-08-30T12:52:15;4.37;;;4.00;;
8435;SDS011;4255;48.730;9.156;2023-08-30T12:54:41;4.40;;;4.10;;
8435;SDS011;4255;48.730;9.156;2023-08-30T12:57:06;5.20;;;4.70;;
8435;SDS011;4255;48.730;9.156;2023-08-30T12:59:32;4.30;;;4.00;;
8435;SDS011;4255;48.730;9.156;2023-08-30T13:01:58;4.73;;;4.40;;
8435;SDS011;4255;48.730;9.156;2023-08-30T13:04:23;4.97;;;4.13;;
8435;SDS011;4255;48.730;9.156;2023-08-30T13:06:49;4.83;;;4.33;;
8435;SDS011;4255;48.730;9.156;2023-08-30T13:09:16;4.40;;;4.10;;
8435;SDS011;4255;48.730;9.156;2023-08-30T13:11:41;4.90;;;4.40;;
8435;SDS011;4255;48.730;9.156;2023-08-30T13:14:08;4.60;;;4.20;;
8435;SDS011;4255;48.730;9.156;2023-08-30T13:16:33;5.80;;;4.80;;
8435;SDS011;4255;48.730;9.156;2023-08-30T13:18:59;6.70;;;4.13;;
8435;SDS011;4255;48.730;9.156;2023-08-30T13:21:25;4.57;;;4.27;;
8435;SDS011;4255;48.730;9.156;2023-08-30T13:23:51;5.57;;;4.50;;
8435;SDS011;4255;48.730;9.156;2023-08-30T13:26:16;4.07;;;3.77;;
8435;SDS011;4255;48.730;9.156;2023-08-30T13:28:42;4.90;;;4.27;;
8435;SDS011;4255;48.730;9.156;2023-08-30T13:31:07;5.30;;;3.67;;
8435;SDS011;4255;48.730;9.156;2023-08-30T13:33:33;5.83;;;3.97;;
8435;SDS011;4255;48.730;9.156;2023-08-30T13:35:59;4.00;;;3.70;;
8435;SDS011;4255;48.730;9.156;2023-08-30T13:38:24;4.50;;;4.10;;
8435;SDS011;4255;48.730;9.156;2023-08-30T13:40:50;3.50;;;3.30;;
8435;SDS011;4255;48.730;9.156;2023-08-30T13:43:16;4.00;;;3.70;;
8435;SDS011;4255;48.730;9.156;2023-08-30T13:45:42;4.50;;;4.20;;
8435;SDS011;4255;48.730;9.156;2023-08-30T13:48:11;7.90;;;4.20;;
8435;SDS011;4255;48.730;9.156;2023-08-30T13:50:40;3.87;;;3.57;;
8435;SDS011;4255;48.730;9.156;2023-08-30T13:53:07;3.53;;;3.33;;
8435;SDS011;4255;48.730;9.156;2023-08-30T13:55:32;4.90;;;3.63;;
8435;SDS011;4255;48.730;9.156;2023-08-30T13:57:58;4.40;;;3.13;;
8435;SDS011;4255;48.730;9.156;2023-08-30T14:00:24;3.37;;;3.13;;
8435;SDS011;4255;48.730;9.156;2023-08-30T14:02:49;3.63;;;3.43;;
8435;SDS011;4255;48.730;9.156;2023-08-30T14:05:16;2.80;;;2.60;;
8435;SDS011;4255;48.730;9.156;2023-08-30T14:07:43;2.90;;;2.80;;
8435;SDS011;4255;48.730;9.156;2023-08-30T14:10:11;4.60;;;4.20;;
8435;SDS011;4255;48.730;9.156;2023-08-30T14:12:41;3.53;;;3.30;;
8435;SDS011;4255;48.730;9.156;2023-08-30T14:15:07;4.93;;;3.90;;
8435;SDS011;4255;48.730;9.156;2023-08-30T14:17:33;3.90;;;3.70;;
8435;SDS011;4255;48.730;9.156;2023-08-30T14:19:58;3.17;;;2.83;;
8435;SDS011;4255;48.730;9.156;2023-08-30T14:22:24;3.33;;;3.13;;
8435;SDS011;4255;48.730;9.156;2023-08-30T14:24:49;4.40;;;3.33;;
8435;SDS011;4255;48.730;9.156;2023-08-30T14:27:15;2.87;;;2.77;;
8435;SDS011;4255;48.730;9.156;2023-08-30T14:29:41;4.20;;;3.67;;
8435;SDS011;4255;48.730;9.156;2023-08-30T14:32:06;3.47;;;3.30;;
8435;SDS011;4255;48.730;9.156;2023-08-30T14:34:32;4.03;;;3.73;;
8435;SDS011;4255;48.730;9.156;2023-08-30T14:36:57;3.60;;;3.30;;
8435;SDS011;4255;48.730;9.156;2023-08-30T14:39:23;7.33;;;2.83;;
8435;SDS011;4255;48.730;9.156;2023-08-30T14:41:49;3.43;;;3.23;;
8435;SDS011;4255;48.730;9.156;2023-08-30T14:44:15;3.27;;;3.13;;
8435;SDS011;4255;48.730;9.156;2023-08-30T14:46:40;3.73;;;3.33;;
8435;SDS011;4255;48.730;9.156;2023-08-30T14:49:06;3.40;;;3.20;;
8435;SDS011;4255;48.730;9.156;2023-08-30T14:51:31;5.70;;;3.60;;
8435;SDS011;4255;48.730;9.156;2023-08-30T14:53:57;4.23;;;3.93;;
8435;SDS011;4255;48.730;9.156;2023-08-30T14:56:22;3.60;;;3.40;;
8435;SDS011;4255;48.730;9.156;2023-08-30T14:58:48;5.00;;;3.90;;
8435;SDS011;4255;48.730;9.156;2023-08-30T15:01:15;4.00;;;3.70;;